sensor_id;sensor_type;location;lat;lon;timestamp;P1;durP1;ratioP1;P2;durP2;ratioP2
70560;SDS011;58109;53.570;10.084;2022-10-26T00:00:49;10.00;;;6.87;;
70560;SDS011;58109;53.570;10.084;2022-10-26T00:03:14;20.97;;;7.53;;
70560;SDS011;58109;53.570;10.084;2022-10-26T00:05:40;11.70;;;7.13;;
70560;SDS011;58109;53.570;10.084;2022-10-26T00:08:08;16.57;;;6.80;;
70560;SDS011;58109;53.570;10.084;2022-10-26T00:10:35;10.07;;;6.70;;
70560;SDS011;58109;53.570;10.084;2022-10-26T00:13:03;19.43;;;7.43;;
70560;SDS011;58109;53.570;10.084;2022-10-26T00:15:33;14.47;;;6.87;;
70560;SDS011;58109;53.570;10.084;2022-10-26T00:17:58;16.10;;;8.27;;
70560;SDS011;58109;53.570;10.084;2022-10-26T00:20:23;22.30;;;7.27;;
70560;SDS011;58109;53.570;10.084;2022-10-26T00:22:49;22.80;;;7.30;;
70560;SDS011;58109;53.570;10.084;2022-10-26T00:25:14;13.00;;;7.33;;
70560;SDS011;58109;53.570;10.084;2022-10-26T00:27:39;15.97;;;7.80;;
70560;SDS011;58109;53.570;10.084;2022-10-26T00:30:05;17.10;;;7.27;;
70560;SDS011;58109;53.570;10.084;2022-10-26T00:32:31;12.40;;;7.20;;
70560;SDS011;58109;53.570;10.084;2022-10-26T00:34:57;22.67;;;7.50;;
70560;SDS011;58109;53.570;10.084;2022-10-26T00:37:25;22.93;;;7.50;;
70560;SDS011;58109;53.570;10.084;2022-10-26T00:39:52;17.50;;;8.20;;
70560;SDS011;58109;53.570;10.084;2022-10-26T00:42:19;23.40;;;7.90;;
70560;SDS011;58109;53.570;10.084;2022-10-26T00:47:24;17.10;;;6.40;;
70560;SDS011;58109;53.570;10.084;2022-10-26T00:49:53;16.70;;;8.10;;
70560;SDS011;58109;53.570;10.084;2022-10-26T00:52:20;13.43;;;7.63;;
70560;SDS011;58109;53.570;10.084;2022-10-26T00:54:46;17.47;;;7.73;;
70560;SDS011;58109;53.570;10.084;2022-10-26T00:57:12;15.60;;;7.13;;
70560;SDS011;58109;53.570;10.084;2022-10-26T00:59:38;11.20;;;6.67;;
70560;SDS011;58109;53.570;10.084;2022-10-26T01:02:04;20.43;;;7.40;;
70560;SDS011;58109;53.570;10.084;2022-10-26T01:04:31;19.90;;;7.60;;
70560;SDS011;58109;53.570;10.084;2022-10-26T01:06:57;17.67;;;7.17;;
70560;SDS011;58109;53.570;10.084;2022-10-26T01:09:23;16.40;;;7.30;;
70560;SDS011;58109;53.570;10.084;2022-10-26T01:11:49;13.37;;;6.70;;
70560;SDS011;58109;53.570;10.084;2022-10-26T01:14:14;13.67;;;7.07;;
70560;SDS011;58109;53.570;10.084;2022-10-26T01:27:44;13.70;;;7.17;;
70560;SDS011;58109;53.570;10.084;2022-10-26T01:35:35;18.67;;;6.80;;
70560;SDS011;58109;53.570;10.084;2022-10-26T01:38:07;13.23;;;6.60;;
70560;SDS011;58109;53.570;10.084;2022-10-26T01:40:53;24.00;;;7.30;;
70560;SDS011;58109;53.570;10.084;2022-10-26T01:43:40;16.63;;;7.33;;
70560;SDS011;58109;53.570;10.084;2022-10-26T01:46:07;15.27;;;7.20;;
70560;SDS011;58109;53.570;10.084;2022-10-26T01:48:33;17.77;;;7.23;;
70560;SDS011;58109;53.570;10.084;2022-10-26T01:51:01;17.40;;;6.47;;
70560;SDS011;58109;53.570;10.084;2022-10-26T01:53:28;10.93;;;7.17;;
70560;SDS011;58109;53.570;10.084;2022-10-26T01:55:54;15.60;;;7.60;;
70560;SDS011;58109;53.570;10.084;2022-10-26T02:06:38;9.97;;;6.37;;
70560;SDS011;58109;53.570;10.084;2022-10-26T02:11:56;13.27;;;7.30;;
70560;SDS011;58109;53.570;10.084;2022-10-26T02:14:35;19.43;;;9.33;;
70560;SDS011;58109;53.570;10.084;2022-10-26T02:19:50;10.70;;;7.30;;
70560;SDS011;58109;53.570;10.084;2022-10-26T02:22:24;15.17;;;6.73;;
70560;SDS011;58109;53.570;10.084;2022-10-26T02:25:03;11.00;;;6.90;;
70560;SDS011;58109;53.570;10.084;2022-10-26T02:27:33;13.10;;;7.90;;
70560;SDS011;58109;53.570;10.084;2022-10-26T02:30:00;17.53;;;7.53;;
70560;SDS011;58109;53.570;10.084;2022-10-26T02:32:30;19.83;;;8.03;;
70560;SDS011;58109;53.570;10.084;2022-10-26T02:34:58;12.00;;;7.30;;
70560;SDS011;58109;53.570;10.084;2022-10-26T02:37:30;17.60;;;7.50;;
70560;SDS011;58109;53.570;10.084;2022-10-26T02:39:56;13.67;;;8.10;;
70560;SDS011;58109;53.570;10.084;2022-10-26T02:42:24;11.77;;;7.40;;
70560;SDS011;58109;53.570;10.084;2022-10-26T02:44:52;18.63;;;8.00;;
70560;SDS011;58109;53.570;10.084;2022-10-26T02:47:19;13.53;;;7.57;;
70560;SDS011;58109;53.570;10.084;2022-10-26T02:49:45;18.43;;;8.20;;
70560;SDS011;58109;53.570;10.084;2022-10-26T02:52:16;19.90;;;7.53;;
70560;SDS011;58109;53.570;10.084;2022-10-26T02:55:11;16.70;;;7.90;;
70560;SDS011;58109;53.570;10.084;2022-10-26T02:57:40;12.73;;;6.93;;
70560;SDS011;58109;53.570;10.084;2022-10-26T03:00:13;18.87;;;8.20;;
70560;SDS011;58109;53.570;10.084;2022-10-26T03:02:41;12.27;;;8.17;;
70560;SDS011;58109;53.570;10.084;2022-10-26T03:05:14;15.00;;;7.87;;
70560;SDS011;58109;53.570;10.084;2022-10-26T03:07:42;13.07;;;7.90;;
70560;SDS011;58109;53.570;10.084;2022-10-26T03:10:10;13.53;;;8.27;;
70560;SDS011;58109;53.570;10.084;2022-10-26T03:12:38;21.70;;;8.00;;
70560;SDS011;58109;53.570;10.084;2022-10-26T03:15:03;15.03;;;7.67;;
70560;SDS011;58109;53.570;10.084;2022-10-26T03:17:29;20.10;;;8.80;;
70560;SDS011;58109;53.570;10.084;2022-10-26T03:19:55;14.20;;;8.40;;
70560;SDS011;58109;53.570;10.084;2022-10-26T03:22:20;16.50;;;8.37;;
70560;SDS011;58109;53.570;10.084;2022-10-26T03:24:46;15.40;;;8.10;;
70560;SDS011;58109;53.570;10.084;2022-10-26T03:27:11;13.60;;;8.17;;
70560;SDS011;58109;53.570;10.084;2022-10-26T03:29:37;16.50;;;7.57;;
70560;SDS011;58109;53.570;10.084;2022-10-26T03:32:05;13.03;;;8.00;;
70560;SDS011;58109;53.570;10.084;2022-10-26T03:34:30;15.20;;;7.17;;
70560;SDS011;58109;53.570;10.084;2022-10-26T03:36:58;19.53;;;9.00;;
70560;SDS011;58109;53.570;10.084;2022-10-26T03:39:23;14.63;;;8.40;;
70560;SDS011;58109;53.570;10.084;2022-10-26T03:41:51;26.40;;;9.23;;
70560;SDS011;58109;53.570;10.084;2022-10-26T03:44:17;23.07;;;8.50;;
70560;SDS011;58109;53.570;10.084;2022-10-26T03:46:42;13.13;;;8.23;;
70560;SDS011;58109;53.570;10.084;2022-10-26T03:49:07;21.13;;;8.57;;
70560;SDS011;58109;53.570;10.084;2022-10-26T03:51:35;19.60;;;8.70;;
70560;SDS011;58109;53.570;10.084;2022-10-26T03:54:00;20.00;;;8.37;;
70560;SDS011;58109;53.570;10.084;2022-10-26T03:56:26;21.97;;;9.43;;
70560;SDS011;58109;53.570;10.084;2022-10-26T03:58:51;16.83;;;8.70;;
70560;SDS011;58109;53.570;10.084;2022-10-26T04:01:17;15.57;;;8.33;;
70560;SDS011;58109;53.570;10.084;2022-10-26T04:03:42;15.87;;;9.33;;
70560;SDS011;58109;53.570;10.084;2022-10-26T04:06:07;18.07;;;8.80;;
70560;SDS011;58109;53.570;10.084;2022-10-26T04:08:35;18.20;;;9.17;;
70560;SDS011;58109;53.570;10.084;2022-10-26T04:11:03;22.30;;;9.20;;
70560;SDS011;58109;53.570;10.084;2022-10-26T04:13:31;25.47;;;10.33;;
70560;SDS011;58109;53.570;10.084;2022-10-26T04:15:59;17.00;;;10.07;;
70560;SDS011;58109;53.570;10.084;2022-10-26T04:18:24;27.23;;;9.80;;
70560;SDS011;58109;53.570;10.084;2022-10-26T04:20:52;22.80;;;9.87;;
70560;SDS011;58109;53.570;10.084;2022-10-26T04:23:18;18.43;;;9.37;;
70560;SDS011;58109;53.570;10.084;2022-10-26T04:25:46;15.10;;;8.73;;
70560;SDS011;58109;53.570;10.084;2022-10-26T04:28:13;17.30;;;9.20;;
70560;SDS011;58109;53.570;10.084;2022-10-26T04:30:39;18.00;;;10.20;;
70560;SDS011;58109;53.570;10.084;2022-10-26T04:33:04;21.13;;;10.50;;
70560;SDS011;58109;53.570;10.084;2022-10-26T04:35:30;20.23;;;10.30;;
70560;SDS011;58109;53.570;10.084;2022-10-26T04:37:57;18.47;;;10.70;;
70560;SDS011;58109;53.570;10.084;2022-10-26T04:40:23;15.77;;;10.37;;
70560;SDS011;58109;53.570;10.084;2022-10-26T04:42:48;31.33;;;14.20;;
70560;SDS011;58109;53.570;10.084;2022-10-26T04:45:14;27.57;;;12.23;;
70560;SDS011;58109;53.570;10.084;2022-10-26T04:47:42;24.50;;;12.67;;
70560;SDS011;58109;53.570;10.084;2022-10-26T04:50:08;19.30;;;12.00;;
70560;SDS011;58109;53.570;10.084;2022-10-26T04:52:36;23.80;;;11.20;;
70560;SDS011;58109;53.570;10.084;2022-10-26T04:55:02;34.97;;;11.77;;
70560;SDS011;58109;53.570;10.084;2022-10-26T04:57:30;23.20;;;12.23;;
70560;SDS011;58109;53.570;10.084;2022-10-26T04:59:59;25.57;;;13.10;;
70560;SDS011;58109;53.570;10.084;2022-10-26T05:02:24;21.43;;;11.10;;
70560;SDS011;58109;53.570;10.084;2022-10-26T05:04:50;24.13;;;12.47;;
70560;SDS011;58109;53.570;10.084;2022-10-26T05:07:17;25.03;;;11.20;;
70560;SDS011;58109;53.570;10.084;2022-10-26T05:09:43;24.93;;;11.83;;
70560;SDS011;58109;53.570;10.084;2022-10-26T05:12:11;23.90;;;12.57;;
70560;SDS011;58109;53.570;10.084;2022-10-26T05:14:37;25.53;;;11.47;;
70560;SDS011;58109;53.570;10.084;2022-10-26T05:17:02;25.97;;;13.37;;
70560;SDS011;58109;53.570;10.084;2022-10-26T05:19:30;23.37;;;12.50;;
70560;SDS011;58109;53.570;10.084;2022-10-26T05:21:55;22.10;;;12.20;;
70560;SDS011;58109;53.570;10.084;2022-10-26T05:24:21;23.67;;;12.90;;
70560;SDS011;58109;53.570;10.084;2022-10-26T05:26:46;30.77;;;14.20;;
70560;SDS011;58109;53.570;10.084;2022-10-26T05:29:14;25.30;;;12.53;;
70560;SDS011;58109;53.570;10.084;2022-10-26T05:31:39;26.30;;;13.20;;
70560;SDS011;58109;53.570;10.084;2022-10-26T05:34:07;29.40;;;14.07;;
70560;SDS011;58109;53.570;10.084;2022-10-26T05:36:35;28.10;;;13.83;;
70560;SDS011;58109;53.570;10.084;2022-10-26T05:39:00;22.80;;;12.80;;
70560;SDS011;58109;53.570;10.084;2022-10-26T05:41:28;23.87;;;12.57;;
70560;SDS011;58109;53.570;10.084;2022-10-26T05:43:54;25.60;;;13.00;;
70560;SDS011;58109;53.570;10.084;2022-10-26T05:46:24;24.50;;;13.20;;
70560;SDS011;58109;53.570;10.084;2022-10-26T05:48:49;27.60;;;13.07;;
70560;SDS011;58109;53.570;10.084;2022-10-26T05:51:14;28.90;;;13.60;;
70560;SDS011;58109;53.570;10.084;2022-10-26T05:53:40;29.90;;;14.10;;
70560;SDS011;58109;53.570;10.084;2022-10-26T05:56:14;26.70;;;14.13;;
70560;SDS011;58109;53.570;10.084;2022-10-26T05:58:43;32.60;;;14.97;;
70560;SDS011;58109;53.570;10.084;2022-10-26T06:06:25;30.10;;;13.57;;
70560;SDS011;58109;53.570;10.084;2022-10-26T06:08:53;27.87;;;14.30;;
70560;SDS011;58109;53.570;10.084;2022-10-26T06:11:18;38.40;;;15.70;;
70560;SDS011;58109;53.570;10.084;2022-10-26T06:13:46;30.70;;;14.63;;
70560;SDS011;58109;53.570;10.084;2022-10-26T06:26:53;27.73;;;14.33;;
70560;SDS011;58109;53.570;10.084;2022-10-26T06:32:37;26.00;;;14.40;;
70560;SDS011;58109;53.570;10.084;2022-10-26T06:35:24;25.53;;;12.80;;
70560;SDS011;58109;53.570;10.084;2022-10-26T06:38:06;23.10;;;14.00;;
70560;SDS011;58109;53.570;10.084;2022-10-26T06:40:42;28.73;;;13.50;;
70560;SDS011;58109;53.570;10.084;2022-10-26T06:43:11;43.93;;;13.80;;
70560;SDS011;58109;53.570;10.084;2022-10-26T06:45:41;31.40;;;15.00;;
70560;SDS011;58109;53.570;10.084;2022-10-26T06:48:15;33.30;;;15.30;;
70560;SDS011;58109;53.570;10.084;2022-10-26T06:53:30;29.40;;;15.30;;
70560;SDS011;58109;53.570;10.084;2022-10-26T06:55:58;31.43;;;15.60;;
70560;SDS011;58109;53.570;10.084;2022-10-26T06:58:26;25.17;;;14.63;;
70560;SDS011;58109;53.570;10.084;2022-10-26T07:00:53;32.20;;;14.50;;
70560;SDS011;58109;53.570;10.084;2022-10-26T07:03:19;28.67;;;14.13;;
70560;SDS011;58109;53.570;10.084;2022-10-26T07:05:45;29.50;;;14.17;;
70560;SDS011;58109;53.570;10.084;2022-10-26T07:08:10;31.97;;;14.60;;
70560;SDS011;58109;53.570;10.084;2022-10-26T07:10:36;37.03;;;16.63;;
70560;SDS011;58109;53.570;10.084;2022-10-26T07:13:05;30.40;;;15.10;;
70560;SDS011;58109;53.570;10.084;2022-10-26T07:15:33;31.17;;;15.50;;
70560;SDS011;58109;53.570;10.084;2022-10-26T07:17:59;32.70;;;15.53;;
70560;SDS011;58109;53.570;10.084;2022-10-26T07:20:29;27.03;;;14.07;;
70560;SDS011;58109;53.570;10.084;2022-10-26T07:22:55;27.10;;;15.20;;
70560;SDS011;58109;53.570;10.084;2022-10-26T07:25:24;33.13;;;14.73;;
70560;SDS011;58109;53.570;10.084;2022-10-26T07:27:57;36.23;;;14.20;;
70560;SDS011;58109;53.570;10.084;2022-10-26T07:30:26;34.43;;;15.40;;
70560;SDS011;58109;53.570;10.084;2022-10-26T07:32:59;34.30;;;14.77;;
70560;SDS011;58109;53.570;10.084;2022-10-26T07:35:25;31.00;;;13.73;;
70560;SDS011;58109;53.570;10.084;2022-10-26T07:37:50;26.07;;;13.57;;
70560;SDS011;58109;53.570;10.084;2022-10-26T07:40:16;27.20;;;14.40;;
70560;SDS011;58109;53.570;10.084;2022-10-26T07:42:41;38.97;;;14.37;;
70560;SDS011;58109;53.570;10.084;2022-10-26T07:45:07;26.07;;;14.13;;
70560;SDS011;58109;53.570;10.084;2022-10-26T07:47:32;30.30;;;14.50;;
70560;SDS011;58109;53.570;10.084;2022-10-26T07:50:00;28.13;;;13.60;;
70560;SDS011;58109;53.570;10.084;2022-10-26T07:52:32;34.50;;;13.83;;
70560;SDS011;58109;53.570;10.084;2022-10-26T07:55:01;30.67;;;14.57;;
70560;SDS011;58109;53.570;10.084;2022-10-26T07:57:28;26.10;;;13.00;;
70560;SDS011;58109;53.570;10.084;2022-10-26T07:59:53;28.20;;;13.50;;
70560;SDS011;58109;53.570;10.084;2022-10-26T08:02:22;24.40;;;13.77;;
70560;SDS011;58109;53.570;10.084;2022-10-26T08:04:50;32.80;;;14.40;;
70560;SDS011;58109;53.570;10.084;2022-10-26T08:07:16;21.57;;;12.77;;
70560;SDS011;58109;53.570;10.084;2022-10-26T08:09:45;29.77;;;12.67;;
70560;SDS011;58109;53.570;10.084;2022-10-26T08:12:11;24.43;;;12.10;;
70560;SDS011;58109;53.570;10.084;2022-10-26T08:14:40;22.40;;;12.13;;
70560;SDS011;58109;53.570;10.084;2022-10-26T08:17:05;19.77;;;12.40;;
70560;SDS011;58109;53.570;10.084;2022-10-26T08:19:31;24.40;;;11.47;;
70560;SDS011;58109;53.570;10.084;2022-10-26T08:21:56;20.77;;;10.13;;
70560;SDS011;58109;53.570;10.084;2022-10-26T08:24:26;24.50;;;11.33;;
70560;SDS011;58109;53.570;10.084;2022-10-26T08:26:51;24.53;;;11.17;;
70560;SDS011;58109;53.570;10.084;2022-10-26T08:29:20;29.07;;;11.83;;
70560;SDS011;58109;53.570;10.084;2022-10-26T08:31:48;25.83;;;12.27;;
70560;SDS011;58109;53.570;10.084;2022-10-26T08:34:14;22.47;;;10.60;;
70560;SDS011;58109;53.570;10.084;2022-10-26T08:36:41;23.67;;;11.77;;
70560;SDS011;58109;53.570;10.084;2022-10-26T08:39:07;20.40;;;12.03;;
70560;SDS011;58109;53.570;10.084;2022-10-26T08:41:42;17.33;;;10.87;;
70560;SDS011;58109;53.570;10.084;2022-10-26T08:46:44;22.60;;;10.70;;
70560;SDS011;58109;53.570;10.084;2022-10-26T08:49:19;23.20;;;10.33;;
70560;SDS011;58109;53.570;10.084;2022-10-26T08:51:48;22.70;;;10.63;;
70560;SDS011;58109;53.570;10.084;2022-10-26T08:57:20;19.23;;;10.40;;
70560;SDS011;58109;53.570;10.084;2022-10-26T09:02:29;19.23;;;9.70;;
70560;SDS011;58109;53.570;10.084;2022-10-26T09:04:57;16.50;;;9.97;;
70560;SDS011;58109;53.570;10.084;2022-10-26T09:10:11;21.57;;;9.27;;
70560;SDS011;58109;53.570;10.084;2022-10-26T09:15:31;32.93;;;10.70;;
70560;SDS011;58109;53.570;10.084;2022-10-26T09:18:23;20.43;;;9.77;;
70560;SDS011;58109;53.570;10.084;2022-10-26T09:23:43;19.93;;;9.13;;
70560;SDS011;58109;53.570;10.084;2022-10-26T09:29:00;15.90;;;9.00;;
70560;SDS011;58109;53.570;10.084;2022-10-26T09:31:34;19.30;;;8.60;;
70560;SDS011;58109;53.570;10.084;2022-10-26T09:34:04;19.07;;;8.97;;
70560;SDS011;58109;53.570;10.084;2022-10-26T09:36:30;20.47;;;8.40;;
70560;SDS011;58109;53.570;10.084;2022-10-26T09:39:23;18.10;;;8.50;;
70560;SDS011;58109;53.570;10.084;2022-10-26T09:42:03;16.43;;;7.60;;
70560;SDS011;58109;53.570;10.084;2022-10-26T09:44:41;18.10;;;7.97;;
70560;SDS011;58109;53.570;10.084;2022-10-26T09:50:00;17.30;;;8.50;;
70560;SDS011;58109;53.570;10.084;2022-10-26T09:52:30;15.77;;;7.07;;
70560;SDS011;58109;53.570;10.084;2022-10-26T09:54:55;14.10;;;6.80;;
70560;SDS011;58109;53.570;10.084;2022-10-26T09:57:21;14.53;;;6.37;;
70560;SDS011;58109;53.570;10.084;2022-10-26T09:59:46;11.20;;;6.57;;
70560;SDS011;58109;53.570;10.084;2022-10-26T10:05:19;10.77;;;5.93;;
70560;SDS011;58109;53.570;10.084;2022-10-26T10:08:16;13.03;;;5.30;;
70560;SDS011;58109;53.570;10.084;2022-10-26T10:11:04;13.03;;;5.30;;
70560;SDS011;58109;53.570;10.084;2022-10-26T10:13:32;9.17;;;5.00;;
70560;SDS011;58109;53.570;10.084;2022-10-26T10:18:38;10.40;;;4.80;;
70560;SDS011;58109;53.570;10.084;2022-10-26T10:21:07;14.40;;;4.90;;
70560;SDS011;58109;53.570;10.084;2022-10-26T10:23:45;7.67;;;4.93;;
70560;SDS011;58109;53.570;10.084;2022-10-26T10:26:12;9.50;;;5.17;;
70560;SDS011;58109;53.570;10.084;2022-10-26T10:28:41;15.23;;;5.50;;
70560;SDS011;58109;53.570;10.084;2022-10-26T10:31:17;10.87;;;6.10;;
70560;SDS011;58109;53.570;10.084;2022-10-26T10:33:45;12.47;;;5.30;;
70560;SDS011;58109;53.570;10.084;2022-10-26T10:36:14;10.13;;;4.97;;
70560;SDS011;58109;53.570;10.084;2022-10-26T10:38:44;9.43;;;5.17;;
70560;SDS011;58109;53.570;10.084;2022-10-26T10:41:14;11.33;;;4.63;;
70560;SDS011;58109;53.570;10.084;2022-10-26T10:43:44;8.97;;;5.97;;
70560;SDS011;58109;53.570;10.084;2022-10-26T10:46:16;10.70;;;5.30;;
70560;SDS011;58109;53.570;10.084;2022-10-26T10:48:45;12.03;;;5.13;;
70560;SDS011;58109;53.570;10.084;2022-10-26T10:51:12;12.27;;;4.80;;
70560;SDS011;58109;53.570;10.084;2022-10-26T10:53:47;12.23;;;6.00;;
70560;SDS011;58109;53.570;10.084;2022-10-26T11:01:30;9.70;;;6.10;;
70560;SDS011;58109;53.570;10.084;2022-10-26T11:06:51;9.57;;;5.27;;
70560;SDS011;58109;53.570;10.084;2022-10-26T11:09:23;13.20;;;5.90;;
70560;SDS011;58109;53.570;10.084;2022-10-26T11:11:55;14.17;;;5.93;;
70560;SDS011;58109;53.570;10.084;2022-10-26T11:19:52;7.33;;;4.93;;
70560;SDS011;58109;53.570;10.084;2022-10-26T11:22:21;12.03;;;5.57;;
70560;SDS011;58109;53.570;10.084;2022-10-26T11:25:14;17.47;;;7.80;;
70560;SDS011;58109;53.570;10.084;2022-10-26T11:27:44;11.00;;;5.00;;
70560;SDS011;58109;53.570;10.084;2022-10-26T11:30:21;10.87;;;6.00;;
70560;SDS011;58109;53.570;10.084;2022-10-26T11:32:59;11.17;;;5.47;;
70560;SDS011;58109;53.570;10.084;2022-10-26T11:35:51;9.23;;;4.90;;
70560;SDS011;58109;53.570;10.084;2022-10-26T11:41:17;7.63;;;5.17;;
70560;SDS011;58109;53.570;10.084;2022-10-26T11:43:47;8.50;;;5.13;;
70560;SDS011;58109;53.570;10.084;2022-10-26T11:46:21;6.67;;;4.83;;
70560;SDS011;58109;53.570;10.084;2022-10-26T11:54:14;8.93;;;5.00;;
70560;SDS011;58109;53.570;10.084;2022-10-26T11:56:42;12.57;;;5.37;;
70560;SDS011;58109;53.570;10.084;2022-10-26T11:59:14;7.30;;;4.50;;
70560;SDS011;58109;53.570;10.084;2022-10-26T12:01:45;14.00;;;5.00;;
70560;SDS011;58109;53.570;10.084;2022-10-26T12:04:21;19.77;;;5.40;;
70560;SDS011;58109;53.570;10.084;2022-10-26T12:06:48;13.77;;;4.87;;
70560;SDS011;58109;53.570;10.084;2022-10-26T12:09:22;15.37;;;4.87;;
70560;SDS011;58109;53.570;10.084;2022-10-26T12:18:14;10.67;;;4.73;;
70560;SDS011;58109;53.570;10.084;2022-10-26T12:23:27;14.17;;;5.33;;
70560;SDS011;58109;53.570;10.084;2022-10-26T12:32:01;11.07;;;5.03;;
70560;SDS011;58109;53.570;10.084;2022-10-26T12:39:32;11.40;;;4.40;;
70560;SDS011;58109;53.570;10.084;2022-10-26T12:42:09;22.73;;;4.97;;
70560;SDS011;58109;53.570;10.084;2022-10-26T12:52:42;14.97;;;4.43;;
70560;SDS011;58109;53.570;10.084;2022-10-26T12:56:10;11.33;;;3.33;;
70560;SDS011;58109;53.570;10.084;2022-10-26T13:03:29;9.33;;;3.03;;
70560;SDS011;58109;53.570;10.084;2022-10-26T13:08:44;10.97;;;3.00;;
70560;SDS011;58109;53.570;10.084;2022-10-26T13:13:59;16.50;;;3.40;;
70560;SDS011;58109;53.570;10.084;2022-10-26T13:16:27;9.83;;;3.30;;
70560;SDS011;58109;53.570;10.084;2022-10-26T13:18:53;7.43;;;2.30;;
70560;SDS011;58109;53.570;10.084;2022-10-26T13:21:19;9.23;;;3.27;;
70560;SDS011;58109;53.570;10.084;2022-10-26T13:26:28;4.77;;;2.43;;
70560;SDS011;58109;53.570;10.084;2022-10-26T13:28:57;7.77;;;2.80;;
70560;SDS011;58109;53.570;10.084;2022-10-26T13:33:53;5.17;;;3.00;;
70560;SDS011;58109;53.570;10.084;2022-10-26T13:36:28;13.00;;;3.50;;
70560;SDS011;58109;53.570;10.084;2022-10-26T13:39:03;3.80;;;2.23;;
70560;SDS011;58109;53.570;10.084;2022-10-26T13:41:35;11.40;;;3.50;;
70560;SDS011;58109;53.570;10.084;2022-10-26T13:44:04;6.60;;;2.70;;
70560;SDS011;58109;53.570;10.084;2022-10-26T13:46:30;13.53;;;3.70;;
70560;SDS011;58109;53.570;10.084;2022-10-26T13:49:02;7.30;;;2.50;;
70560;SDS011;58109;53.570;10.084;2022-10-26T13:51:37;5.33;;;2.60;;
70560;SDS011;58109;53.570;10.084;2022-10-26T13:54:21;14.07;;;5.10;;
70560;SDS011;58109;53.570;10.084;2022-10-26T13:56:55;27.43;;;3.90;;
70560;SDS011;58109;53.570;10.084;2022-10-26T13:59:21;10.43;;;3.10;;
70560;SDS011;58109;53.570;10.084;2022-10-26T14:02:35;16.37;;;3.20;;
70560;SDS011;58109;53.570;10.084;2022-10-26T14:05:08;13.53;;;3.20;;
70560;SDS011;58109;53.570;10.084;2022-10-26T14:07:35;9.90;;;3.00;;
70560;SDS011;58109;53.570;10.084;2022-10-26T14:10:04;9.60;;;3.30;;
70560;SDS011;58109;53.570;10.084;2022-10-26T14:12:30;9.50;;;3.13;;
70560;SDS011;58109;53.570;10.084;2022-10-26T14:15:00;10.03;;;3.30;;
70560;SDS011;58109;53.570;10.084;2022-10-26T14:17:34;12.90;;;3.17;;
70560;SDS011;58109;53.570;10.084;2022-10-26T14:20:00;6.23;;;2.83;;
70560;SDS011;58109;53.570;10.084;2022-10-26T14:22:27;14.40;;;3.80;;
70560;SDS011;58109;53.570;10.084;2022-10-26T14:24:56;9.20;;;3.73;;
70560;SDS011;58109;53.570;10.084;2022-10-26T14:27:26;5.90;;;3.10;;
70560;SDS011;58109;53.570;10.084;2022-10-26T14:29:56;16.50;;;3.57;;
70560;SDS011;58109;53.570;10.084;2022-10-26T14:34:51;9.40;;;2.70;;
70560;SDS011;58109;53.570;10.084;2022-10-26T14:40:11;7.80;;;3.30;;
70560;SDS011;58109;53.570;10.084;2022-10-26T14:42:42;9.47;;;3.27;;
70560;SDS011;58109;53.570;10.084;2022-10-26T14:48:00;16.13;;;3.83;;
70560;SDS011;58109;53.570;10.084;2022-10-26T14:50:27;10.37;;;3.50;;
70560;SDS011;58109;53.570;10.084;2022-10-26T14:52:58;14.70;;;4.93;;
70560;SDS011;58109;53.570;10.084;2022-10-26T14:55:28;9.07;;;3.47;;
70560;SDS011;58109;53.570;10.084;2022-10-26T14:58:07;16.20;;;3.40;;
70560;SDS011;58109;53.570;10.084;2022-10-26T15:00:38;14.23;;;3.20;;
70560;SDS011;58109;53.570;10.084;2022-10-26T15:03:04;11.80;;;2.73;;
70560;SDS011;58109;53.570;10.084;2022-10-26T15:05:38;8.93;;;3.00;;
70560;SDS011;58109;53.570;10.084;2022-10-26T15:08:03;6.90;;;2.93;;
70560;SDS011;58109;53.570;10.084;2022-10-26T15:11:07;11.30;;;2.50;;
70560;SDS011;58109;53.570;10.084;2022-10-26T15:13:33;6.10;;;2.57;;
70560;SDS011;58109;53.570;10.084;2022-10-26T15:16:14;8.13;;;2.67;;
70560;SDS011;58109;53.570;10.084;2022-10-26T15:18:47;4.90;;;2.07;;
70560;SDS011;58109;53.570;10.084;2022-10-26T15:21:25;12.50;;;2.20;;
70560;SDS011;58109;53.570;10.084;2022-10-26T15:23:56;10.73;;;2.17;;
70560;SDS011;58109;53.570;10.084;2022-10-26T15:26:27;13.83;;;2.53;;
70560;SDS011;58109;53.570;10.084;2022-10-26T15:28:53;13.50;;;3.80;;
70560;SDS011;58109;53.570;10.084;2022-10-26T15:36:19;9.93;;;2.27;;
70560;SDS011;58109;53.570;10.084;2022-10-26T15:38:46;12.73;;;2.50;;
70560;SDS011;58109;53.570;10.084;2022-10-26T15:43:46;5.70;;;3.20;;
70560;SDS011;58109;53.570;10.084;2022-10-26T15:46:13;7.17;;;2.40;;
70560;SDS011;58109;53.570;10.084;2022-10-26T15:48:42;10.80;;;2.70;;
70560;SDS011;58109;53.570;10.084;2022-10-26T15:51:10;15.57;;;2.57;;
70560;SDS011;58109;53.570;10.084;2022-10-26T15:53:39;8.60;;;2.53;;
70560;SDS011;58109;53.570;10.084;2022-10-26T15:56:07;6.50;;;2.20;;
70560;SDS011;58109;53.570;10.084;2022-10-26T15:58:38;8.07;;;2.80;;
70560;SDS011;58109;53.570;10.084;2022-10-26T16:01:06;8.67;;;3.60;;
70560;SDS011;58109;53.570;10.084;2022-10-26T16:03:34;3.10;;;2.10;;
70560;SDS011;58109;53.570;10.084;2022-10-26T16:06:00;7.37;;;3.30;;
70560;SDS011;58109;53.570;10.084;2022-10-26T16:08:26;7.20;;;2.90;;
70560;SDS011;58109;53.570;10.084;2022-10-26T16:10:56;7.23;;;2.70;;
70560;SDS011;58109;53.570;10.084;2022-10-26T16:13:24;12.00;;;3.63;;
70560;SDS011;58109;53.570;10.084;2022-10-26T16:15:50;14.63;;;3.33;;
70560;SDS011;58109;53.570;10.084;2022-10-26T16:18:18;10.47;;;3.57;;
70560;SDS011;58109;53.570;10.084;2022-10-26T16:20:44;7.57;;;3.30;;
70560;SDS011;58109;53.570;10.084;2022-10-26T16:23:10;12.20;;;4.13;;
70560;SDS011;58109;53.570;10.084;2022-10-26T16:25:39;11.40;;;3.27;;
70560;SDS011;58109;53.570;10.084;2022-10-26T16:28:12;7.57;;;3.10;;
70560;SDS011;58109;53.570;10.084;2022-10-26T16:30:40;12.83;;;3.40;;
70560;SDS011;58109;53.570;10.084;2022-10-26T16:33:06;13.27;;;3.23;;
70560;SDS011;58109;53.570;10.084;2022-10-26T16:35:32;19.20;;;3.43;;
70560;SDS011;58109;53.570;10.084;2022-10-26T16:38:00;12.43;;;3.87;;
70560;SDS011;58109;53.570;10.084;2022-10-26T16:40:28;10.40;;;4.77;;
70560;SDS011;58109;53.570;10.084;2022-10-26T16:42:58;14.83;;;3.80;;
70560;SDS011;58109;53.570;10.084;2022-10-26T16:45:23;9.10;;;3.40;;
70560;SDS011;58109;53.570;10.084;2022-10-26T16:47:51;10.53;;;3.30;;
70560;SDS011;58109;53.570;10.084;2022-10-26T16:50:19;16.67;;;3.93;;
70560;SDS011;58109;53.570;10.084;2022-10-26T16:52:50;7.63;;;3.90;;
70560;SDS011;58109;53.570;10.084;2022-10-26T16:55:15;10.80;;;3.30;;
70560;SDS011;58109;53.570;10.084;2022-10-26T16:57:41;17.57;;;3.80;;
70560;SDS011;58109;53.570;10.084;2022-10-26T17:00:07;11.10;;;3.90;;
70560;SDS011;58109;53.570;10.084;2022-10-26T17:02:32;8.30;;;3.00;;
70560;SDS011;58109;53.570;10.084;2022-10-26T17:05:01;11.30;;;3.93;;
70560;SDS011;58109;53.570;10.084;2022-10-26T17:07:30;10.50;;;4.07;;
70560;SDS011;58109;53.570;10.084;2022-10-26T17:09:55;10.10;;;4.13;;
70560;SDS011;58109;53.570;10.084;2022-10-26T17:12:21;23.33;;;5.67;;
70560;SDS011;58109;53.570;10.084;2022-10-26T17:14:49;20.90;;;5.23;;
70560;SDS011;58109;53.570;10.084;2022-10-26T17:17:17;12.20;;;3.97;;